MMPG

Piedras Negras International Airport

Mexico
TAF MMPG 210504Z 2106/2206 12015KT P6SM BKN030 OVC080 TEMPO 2106/2110 5SM -RA FM211800 20010KT P6SM SCT030 BKN090 BECMG 2202/2204 16005KT
Issued Valid From Valid To
Apr-21 @ 05:04 UTC
(4 hours ago)
Apr-21 @ 06:00 UTC
(3 hours ago)
Apr-22 @ 06:00 UTC
(in 21 hours)
Apr-21 @ 06:00 to Apr-21 @ 18:00
TAF MMPG 210504Z 2106/2206 12015KT P6SM BKN030 OVC080
Wind Visibility Clouds
120° at 15 knots Greater than 6 miles
  • Broken at 3,000' AGL
  • Overcast at 8,000' AGL
Temporary Apr-21 @ 06:00 to Apr-21 @ 10:00
TEMPO 2106/2110 5SM -RA
Visibility Conditions
5 miles
  • Light Rain
From Apr-21 @ 18:00 to Apr-22 @ 02:00
FM211800 20010KT P6SM SCT030 BKN090
Wind Visibility Clouds
200° at 10 knots Greater than 6 miles
  • Scattered at 3,000' AGL
  • Broken at 9,000' AGL
Becoming Apr-22 @ 02:00 to Apr-22 @ 06:00
BECMG 2202/2204 16005KT
Wind Visibility Clouds
160° at 5 knots Greater than 6 miles
  • Scattered at 3,000' AGL
  • Broken at 9,000' AGL
TAF MMPG 210504Z 2106/2206 12015KT P6SM BKN030 OVC080 TEMPO 2106/2110 5SM -RA FM211800 20010KT P6SM SCT030 BKN090 BECMG 2202/2204 16005KT
Issued Apr-21 @ 05:04 UTC
(4 hours ago)
Valid From Apr-21 @ 06:00 UTC
(3 hours ago)
Valid To Apr-22 @ 06:00 UTC
(in 21 hours)
Apr-21 @ 06:00 - Apr-21 @ 18:00
Wind Visibility
120° at 15 knots Greater than 6 miles
Clouds
  • Broken at 3,000' AGL
  • Overcast at 8,000' AGL
Temporary Apr-21 @ 06:00 - Apr-21 @ 10:00
Conditions
  • Light Rain
From Apr-21 @ 18:00 - Apr-22 @ 02:00
Wind Visibility
200° at 10 knots Greater than 6 miles
Clouds
  • Scattered at 3,000' AGL
  • Broken at 9,000' AGL
Becoming Apr-22 @ 02:00 - Apr-22 @ 06:00
Wind Visibility
160° at 5 knots Greater than 6 miles
Clouds
  • Scattered at 3,000' AGL
  • Broken at 9,000' AGL